createdAt,value
2022-11-29T00:00:06.925Z,1014.85
2022-11-29T00:01:07.307Z,1014.87
2022-11-29T00:02:07.843Z,1014.86
2022-11-29T00:03:08.109Z,1014.88
2022-11-29T00:04:08.316Z,1014.88
2022-11-29T00:05:08.658Z,1014.89
2022-11-29T00:06:09.021Z,1014.89
2022-11-29T00:07:09.366Z,1014.88
2022-11-29T00:08:09.714Z,1014.88
2022-11-29T00:09:10.065Z,1014.93
2022-11-29T00:10:10.411Z,1014.87
2022-11-29T00:11:10.764Z,1014.83
2022-11-29T00:12:11.109Z,1014.88
2022-11-29T00:13:11.451Z,1014.85
2022-11-29T00:14:11.798Z,1014.84
2022-11-29T00:15:12.173Z,1014.87
2022-11-29T00:16:12.577Z,1014.88
2022-11-29T00:17:12.854Z,1014.88
2022-11-29T00:18:13.198Z,1014.88
2022-11-29T00:19:13.539Z,1014.93
2022-11-29T00:20:13.897Z,1014.90
2022-11-29T00:21:14.241Z,1014.89
2022-11-29T00:22:14.595Z,1014.92
2022-11-29T00:23:14.937Z,1014.92
2022-11-29T00:24:15.291Z,1014.87
2022-11-29T00:25:15.644Z,1014.91
2022-11-29T00:26:16.024Z,1014.88
2022-11-29T00:27:16.357Z,1014.88
2022-11-29T00:28:16.704Z,1014.83
2022-11-29T00:29:17.058Z,1014.84
2022-11-29T00:30:17.418Z,1014.87
2022-11-29T00:31:17.830Z,1014.90
2022-11-29T00:32:18.119Z,1014.89
2022-11-29T00:33:18.477Z,1014.89
2022-11-29T00:34:18.800Z,1014.87
2022-11-29T00:35:19.147Z,1014.90
2022-11-29T00:36:19.523Z,1014.87
2022-11-29T00:37:19.861Z,1014.84
2022-11-29T00:38:20.219Z,1014.80
2022-11-29T00:39:20.567Z,1014.81
2022-11-29T00:40:20.918Z,1014.82
2022-11-29T00:41:21.295Z,1014.80
2022-11-29T00:42:21.604Z,1014.83
2022-11-29T00:43:21.950Z,1014.82
2022-11-29T00:44:22.298Z,1014.84
2022-11-29T00:45:22.651Z,1014.78
2022-11-29T00:46:23.068Z,1014.79
2022-11-29T00:47:23.349Z,1014.81
2022-11-29T00:48:23.720Z,1014.79
2022-11-29T00:49:24.069Z,1014.83
2022-11-29T00:50:24.411Z,1014.77
2022-11-29T00:51:24.828Z,1014.86
2022-11-29T00:52:25.129Z,1014.89
2022-11-29T00:53:25.475Z,1014.79
2022-11-29T00:54:25.831Z,1014.75
2022-11-29T00:55:26.175Z,1014.81
2022-11-29T00:56:26.546Z,1014.80
2022-11-29T00:57:26.888Z,1014.81
2022-11-29T00:58:27.246Z,1014.79
2022-11-29T00:59:27.572Z,1014.78
2022-11-29T01:00:28.210Z,1014.81
2022-11-29T01:01:28.340Z,1014.78
2022-11-29T01:02:28.655Z,1014.79
2022-11-29T01:03:28.966Z,1014.79
2022-11-29T01:04:29.319Z,1014.80
2022-11-29T01:05:29.666Z,1014.78
2022-11-29T01:06:30.041Z,1014.77
2022-11-29T01:07:30.430Z,1014.75
2022-11-29T01:08:30.711Z,1014.78
2022-11-29T01:09:31.028Z,1014.75
2022-11-29T01:10:31.383Z,1014.79
2022-11-29T01:11:31.744Z,1014.82
2022-11-29T01:12:32.088Z,1014.79
2022-11-29T01:13:32.444Z,1014.82
2022-11-29T01:14:32.794Z,1014.84
2022-11-29T01:15:33.141Z,1014.84
2022-11-29T01:16:33.701Z,1014.87
2022-11-29T01:17:33.848Z,1014.82
2022-11-29T01:18:34.204Z,1014.85
2022-11-29T01:19:34.552Z,1014.82
2022-11-29T01:20:34.899Z,1014.87
2022-11-29T01:21:35.258Z,1014.87
2022-11-29T01:22:35.604Z,1014.86
2022-11-29T01:23:35.950Z,1014.88
2022-11-29T01:24:36.298Z,1014.83
2022-11-29T01:25:36.652Z,1014.88
2022-11-29T01:26:37.031Z,1014.87
2022-11-29T01:27:37.342Z,1014.89
2022-11-29T01:28:37.691Z,1014.87
2022-11-29T01:29:38.036Z,1014.87
2022-11-29T01:30:38.439Z,1014.92
2022-11-29T01:31:38.750Z,1014.88
2022-11-29T01:32:39.092Z,1014.94
2022-11-29T01:33:39.432Z,1014.90
2022-11-29T01:34:39.767Z,1014.94
2022-11-29T01:35:40.107Z,1014.93
2022-11-29T01:36:40.472Z,1014.92
2022-11-29T01:37:40.811Z,1014.97
2022-11-29T01:38:41.160Z,1015.00
2022-11-29T01:39:41.503Z,1014.96
2022-11-29T01:40:41.850Z,1015.03
2022-11-29T01:41:42.219Z,1014.99
2022-11-29T01:42:42.555Z,1015.01
2022-11-29T01:43:42.894Z,1014.99
2022-11-29T01:44:43.550Z,1015.04
2022-11-29T01:45:43.659Z,1015.04
2022-11-29T01:46:43.963Z,1015.04
2022-11-29T01:47:44.308Z,1015.00
2022-11-29T01:48:44.653Z,1015.03
2022-11-29T01:49:45.009Z,1015.04
2022-11-29T01:50:45.354Z,1015.03
2022-11-29T01:51:45.743Z,1015.05
2022-11-29T01:52:46.050Z,1015.05
2022-11-29T01:53:46.393Z,1015.03
2022-11-29T01:54:47.129Z,1015.06
2022-11-29T01:55:47.116Z,1015.08
2022-11-29T01:56:47.464Z,1015.08
2022-11-29T01:57:47.802Z,1015.08
2022-11-29T01:58:48.148Z,1015.09
2022-11-29T01:59:48.496Z,1015.03
2022-11-29T02:00:48.846Z,1015.08
2022-11-29T02:01:49.234Z,1015.10
2022-11-29T02:02:49.607Z,1015.09
2022-11-29T02:03:49.916Z,1015.11
2022-11-29T02:04:50.264Z,1015.09
2022-11-29T02:05:50.617Z,1015.11
2022-11-29T02:06:50.970Z,1015.15
2022-11-29T02:07:51.364Z,1015.14
2022-11-29T02:08:51.652Z,1015.11
2022-11-29T02:09:52.003Z,1015.08
2022-11-29T02:10:52.345Z,1015.12
2022-11-29T02:11:52.730Z,1015.10
2022-11-29T02:12:53.065Z,1015.09
2022-11-29T02:13:53.415Z,1015.12
2022-11-29T02:14:53.760Z,1015.15
2022-11-29T02:15:54.155Z,1015.19
2022-11-29T02:16:56.689Z,1015.13
2022-11-29T02:17:54.837Z,1015.13
2022-11-29T02:18:55.183Z,1015.09
2022-11-29T02:19:55.526Z,1015.12
2022-11-29T02:20:55.882Z,1015.14
2022-11-29T02:21:56.258Z,1015.11
2022-11-29T02:22:56.592Z,1015.17
2022-11-29T02:23:56.954Z,1015.15
2022-11-29T02:24:57.301Z,1015.15
2022-11-29T02:25:57.651Z,1015.15
2022-11-29T02:26:58.028Z,1015.13
2022-11-29T02:27:58.366Z,1015.15
2022-11-29T02:28:58.725Z,1015.21
2022-11-29T02:29:59.062Z,1015.20
2022-11-29T02:30:59.480Z,1015.17
2022-11-29T02:31:59.776Z,1015.14
2022-11-29T02:33:00.113Z,1015.17
2022-11-29T02:34:00.464Z,1015.15
2022-11-29T02:35:00.827Z,1015.21
2022-11-29T02:36:01.176Z,1015.18
2022-11-29T02:37:01.550Z,1015.22
2022-11-29T02:38:01.853Z,1015.19
2022-11-29T02:39:02.225Z,1015.24
2022-11-29T02:40:02.539Z,1015.21
2022-11-29T02:41:02.882Z,1015.26
2022-11-29T02:42:03.257Z,1015.19
2022-11-29T02:43:03.573Z,1015.18
2022-11-29T02:44:03.926Z,1015.21
2022-11-29T02:45:04.256Z,1015.23
2022-11-29T02:46:04.636Z,1015.22
2022-11-29T02:47:04.972Z,1015.28
2022-11-29T02:48:05.330Z,1015.27
2022-11-29T02:49:05.667Z,1015.29
2022-11-29T02:50:06.023Z,1015.31
2022-11-29T02:51:06.379Z,1015.31
2022-11-29T02:52:06.838Z,1015.28
2022-11-29T02:53:07.105Z,1015.31
2022-11-29T02:54:07.423Z,1015.31
2022-11-29T02:55:07.776Z,1015.29
2022-11-29T02:56:08.113Z,1015.31
2022-11-29T02:57:08.516Z,1015.24
2022-11-29T02:58:08.803Z,1015.31
2022-11-29T02:59:09.183Z,1015.29
2022-11-29T03:00:09.515Z,1015.34
2022-11-29T03:01:09.959Z,1015.39
2022-11-29T03:02:10.277Z,1015.37
2022-11-29T03:03:10.561Z,1015.37
2022-11-29T03:04:10.908Z,1015.43
2022-11-29T03:05:11.265Z,1015.42
2022-11-29T03:06:11.621Z,1015.43
2022-11-29T03:07:11.980Z,1015.45
2022-11-29T03:08:12.322Z,1015.47
2022-11-29T03:09:12.688Z,1015.49
2022-11-29T03:10:13.034Z,1015.48
2022-11-29T03:11:13.389Z,1015.54
2022-11-29T03:12:13.767Z,1015.53
2022-11-29T03:13:14.081Z,1015.50
2022-11-29T03:14:14.455Z,1015.47
2022-11-29T03:15:14.808Z,1015.50
2022-11-29T03:16:15.155Z,1015.55
2022-11-29T03:17:15.500Z,1015.54
2022-11-29T03:18:15.850Z,1015.57
2022-11-29T03:19:16.190Z,1015.53
2022-11-29T03:20:16.577Z,1015.51
2022-11-29T03:21:16.869Z,1015.56
2022-11-29T03:22:17.241Z,1015.56
2022-11-29T03:23:17.588Z,1015.56
2022-11-29T03:24:17.945Z,1015.58
2022-11-29T03:25:18.287Z,1015.58
2022-11-29T03:26:18.645Z,1015.61
2022-11-29T03:27:19.019Z,1015.64
2022-11-29T03:28:19.324Z,1015.65
2022-11-29T03:29:19.675Z,1015.73
2022-11-29T03:30:20.036Z,1015.68
2022-11-29T03:31:20.433Z,1015.70
2022-11-29T03:32:20.761Z,1015.67
2022-11-29T03:33:21.098Z,1015.64
2022-11-29T03:34:21.423Z,1015.68
2022-11-29T03:35:21.762Z,1015.70
2022-11-29T03:36:22.128Z,1015.71
2022-11-29T03:37:22.480Z,1015.72
2022-11-29T03:38:22.819Z,1015.70
2022-11-29T03:39:23.169Z,1015.69
2022-11-29T03:40:23.519Z,1015.67
2022-11-29T03:41:23.871Z,1015.69
2022-11-29T03:42:24.237Z,1015.67
2022-11-29T03:43:24.608Z,1015.72
2022-11-29T03:44:24.926Z,1015.70
2022-11-29T03:45:25.281Z,1015.71
2022-11-29T03:46:25.678Z,1015.72
2022-11-29T03:47:25.999Z,1015.76
2022-11-29T03:48:26.339Z,1015.77
2022-11-29T03:49:26.686Z,1015.71
2022-11-29T03:50:27.039Z,1015.73
2022-11-29T03:51:27.394Z,1015.72
2022-11-29T03:52:27.794Z,1015.73
2022-11-29T03:53:28.094Z,1015.76
2022-11-29T03:54:28.451Z,1015.81
2022-11-29T03:55:28.813Z,1015.77
2022-11-29T03:56:29.159Z,1015.75
2022-11-29T03:57:29.537Z,1015.75
2022-11-29T03:58:29.843Z,1015.77
2022-11-29T03:59:30.184Z,1015.83
2022-11-29T04:00:30.532Z,1015.81
2022-11-29T04:01:30.897Z,1015.85
2022-11-29T04:02:31.297Z,1015.85
2022-11-29T04:03:31.566Z,1015.82
2022-11-29T04:04:31.913Z,1015.87
2022-11-29T04:05:32.274Z,1015.86
2022-11-29T04:06:32.635Z,1015.88
2022-11-29T04:07:33.025Z,1015.88
2022-11-29T04:08:33.331Z,1015.92
2022-11-29T04:09:33.677Z,1015.89
2022-11-29T04:10:34.045Z,1015.89
2022-11-29T04:11:34.370Z,1015.89
2022-11-29T04:12:34.750Z,1015.89
2022-11-29T04:13:35.058Z,1015.85
2022-11-29T04:14:35.407Z,1015.92
2022-11-29T04:15:35.806Z,1015.94
2022-11-29T04:16:36.105Z,1015.90
2022-11-29T04:17:36.468Z,1015.88
2022-11-29T04:18:36.805Z,1015.90
2022-11-29T04:19:37.155Z,1015.89
2022-11-29T04:20:41.097Z,1015.89
2022-11-29T04:21:37.860Z,1015.95
2022-11-29T04:22:38.227Z,1015.91
2022-11-29T04:23:38.564Z,1015.90
2022-11-29T04:24:38.914Z,1015.97
2022-11-29T04:25:39.260Z,1015.96
2022-11-29T04:26:39.600Z,1016.02
2022-11-29T04:27:39.972Z,1015.95
2022-11-29T04:28:40.313Z,1015.98
2022-11-29T04:29:40.657Z,1015.98
2022-11-29T04:30:41.019Z,1015.99
2022-11-29T04:31:41.355Z,1016.01
2022-11-29T04:32:41.718Z,1016.04
2022-11-29T04:33:42.062Z,1016.05
2022-11-29T04:34:42.670Z,1016.07
2022-11-29T04:35:42.751Z,1016.12
2022-11-29T04:36:43.106Z,1016.05
2022-11-29T04:37:43.465Z,1016.04
2022-11-29T04:38:43.837Z,1016.05
2022-11-29T04:39:44.151Z,1016.08
2022-11-29T04:40:44.506Z,1016.07
2022-11-29T04:41:44.852Z,1016.10
2022-11-29T04:42:45.219Z,1016.13
2022-11-29T04:43:45.570Z,1016.10
2022-11-29T04:44:46.200Z,1016.12
2022-11-29T04:45:46.283Z,1016.12
2022-11-29T04:46:46.726Z,1016.16
2022-11-29T04:47:47.007Z,1016.15
2022-11-29T04:48:47.364Z,1016.15
2022-11-29T04:49:47.699Z,1016.13
2022-11-29T04:50:48.040Z,1016.14
2022-11-29T04:51:48.388Z,1016.20
2022-11-29T04:52:48.787Z,1016.21
2022-11-29T04:53:49.096Z,1016.22
2022-11-29T04:54:49.434Z,1016.23
2022-11-29T04:55:49.785Z,1016.25
2022-11-29T04:56:50.139Z,1016.25
2022-11-29T04:57:50.511Z,1016.27
2022-11-29T04:58:50.856Z,1016.33
2022-11-29T04:59:51.195Z,1016.25
2022-11-29T05:00:51.544Z,1016.30
2022-11-29T05:01:51.938Z,1016.28
2022-11-29T05:02:52.319Z,1016.33
2022-11-29T05:03:57.080Z,1016.30
2022-11-29T05:04:52.952Z,1016.32
2022-11-29T05:05:53.298Z,1016.34
2022-11-29T05:06:53.651Z,1016.30
2022-11-29T05:07:54.039Z,1016.32
2022-11-29T05:08:54.339Z,1016.35
2022-11-29T05:09:54.694Z,1016.32
2022-11-29T05:10:55.035Z,1016.33
2022-11-29T05:11:55.385Z,1016.35
2022-11-29T05:12:55.744Z,1016.36
2022-11-29T05:13:56.107Z,1016.34
2022-11-29T05:14:56.448Z,1016.35
2022-11-29T05:15:56.853Z,1016.35
2022-11-29T05:16:57.161Z,1016.37
2022-11-29T05:17:57.521Z,1016.39
2022-11-29T05:18:57.862Z,1016.36
2022-11-29T05:19:58.210Z,1016.36
2022-11-29T05:20:58.574Z,1016.41
2022-11-29T05:21:58.913Z,1016.42
2022-11-29T05:22:59.284Z,1016.40
2022-11-29T05:23:59.619Z,1016.40
2022-11-29T05:24:59.966Z,1016.41
2022-11-29T05:26:00.302Z,1016.38
2022-11-29T05:27:00.654Z,1016.43
2022-11-29T05:28:03.399Z,1016.42
2022-11-29T05:29:01.344Z,1016.36
2022-11-29T05:30:01.690Z,1016.38
2022-11-29T05:31:02.132Z,1016.39
2022-11-29T05:32:02.375Z,1016.42
2022-11-29T05:33:02.742Z,1016.39
2022-11-29T05:34:03.081Z,1016.40
2022-11-29T05:35:03.444Z,1016.39
2022-11-29T05:36:03.762Z,1016.40
2022-11-29T05:37:04.111Z,1016.41
2022-11-29T05:38:04.485Z,1016.42
2022-11-29T05:39:04.830Z,1016.42
2022-11-29T05:40:05.184Z,1016.42
2022-11-29T05:41:05.534Z,1016.46
2022-11-29T05:42:05.890Z,1016.44
2022-11-29T05:43:06.254Z,1016.45
2022-11-29T05:44:06.570Z,1016.44
2022-11-29T05:45:06.923Z,1016.52
2022-11-29T05:46:07.310Z,1016.49
2022-11-29T05:47:07.637Z,1016.49
2022-11-29T05:48:07.994Z,1016.50
2022-11-29T05:49:08.331Z,1016.50
2022-11-29T05:50:08.681Z,1016.55
2022-11-29T05:51:09.030Z,1016.59
2022-11-29T05:52:09.380Z,1016.57
2022-11-29T05:53:09.781Z,1016.59
2022-11-29T05:54:10.073Z,1016.59
2022-11-29T05:55:10.422Z,1016.59
2022-11-29T05:56:10.769Z,1016.60
2022-11-29T05:57:11.119Z,1016.64
2022-11-29T05:58:11.497Z,1016.68
2022-11-29T05:59:11.809Z,1016.70
2022-11-29T06:00:12.151Z,1016.66
2022-11-29T06:01:12.510Z,1016.71
2022-11-29T06:02:12.931Z,1016.72
2022-11-29T06:03:13.343Z,1016.74
2022-11-29T06:04:15.152Z,1016.73
2022-11-29T06:05:13.951Z,1016.77
2022-11-29T06:06:14.290Z,1016.76
2022-11-29T06:07:14.735Z,1016.76
2022-11-29T06:08:15.024Z,1016.80
2022-11-29T06:09:15.356Z,1016.84
2022-11-29T06:10:15.704Z,1016.83
2022-11-29T06:11:16.051Z,1016.89
2022-11-29T06:12:20.887Z,1016.88
2022-11-29T06:13:16.762Z,1016.87
2022-11-29T06:14:17.121Z,1016.88
2022-11-29T06:15:17.461Z,1016.86
2022-11-29T06:16:17.891Z,1016.92
2022-11-29T06:17:18.155Z,1016.87
2022-11-29T06:18:18.522Z,1016.90
2022-11-29T06:19:18.863Z,1016.95
2022-11-29T06:20:19.204Z,1016.90
2022-11-29T06:21:19.553Z,1016.87
2022-11-29T06:22:19.905Z,1016.90
2022-11-29T06:23:20.269Z,1016.95
2022-11-29T06:24:25.755Z,1016.94
2022-11-29T06:25:20.957Z,1016.93
2022-11-29T06:26:21.309Z,1016.99
2022-11-29T06:27:21.660Z,1016.95
2022-11-29T06:28:22.043Z,1016.99
2022-11-29T06:29:22.343Z,1017.01
2022-11-29T06:30:22.691Z,1017.01
2022-11-29T06:31:23.082Z,1017.01
2022-11-29T06:32:23.375Z,1017.01
2022-11-29T06:33:23.738Z,1017.02
2022-11-29T06:34:30.417Z,1017.07
2022-11-29T06:35:24.444Z,1017.07
2022-11-29T06:36:24.774Z,1017.06
2022-11-29T06:37:25.188Z,1017.04
2022-11-29T06:38:25.497Z,1017.05
2022-11-29T06:39:25.722Z,1017.08
2022-11-29T06:40:25.965Z,1017.06
2022-11-29T06:41:26.278Z,1017.09
2022-11-29T06:42:26.538Z,1017.05
2022-11-29T06:43:26.853Z,1017.06
2022-11-29T06:44:27.098Z,1017.08
2022-11-29T06:45:27.395Z,1017.06
2022-11-29T06:46:27.686Z,1017.12
2022-11-29T06:47:27.927Z,1017.11
2022-11-29T06:48:28.231Z,1017.07
2022-11-29T06:49:28.491Z,1017.15
2022-11-29T06:50:28.764Z,1017.18
2022-11-29T06:51:29.059Z,1017.21
2022-11-29T06:52:29.352Z,1017.17
2022-11-29T06:53:29.688Z,1017.19
2022-11-29T06:54:29.897Z,1017.20
2022-11-29T06:55:30.223Z,1017.24
2022-11-29T06:56:30.469Z,1017.20
2022-11-29T06:57:30.770Z,1017.27
2022-11-29T06:58:35.845Z,1017.29
2022-11-29T06:59:31.356Z,1017.31
2022-11-29T07:00:31.673Z,1017.27
2022-11-29T07:01:31.928Z,1017.30
2022-11-29T07:02:32.073Z,1017.36
2022-11-29T07:03:32.415Z,1017.40
2022-11-29T07:04:32.665Z,1017.35
2022-11-29T07:05:32.970Z,1017.38
2022-11-29T07:06:33.136Z,1017.39
2022-11-29T07:07:33.359Z,1017.37
2022-11-29T07:08:33.605Z,1017.40
2022-11-29T07:09:33.905Z,1017.36
2022-11-29T07:10:34.056Z,1017.38
2022-11-29T07:11:34.349Z,1017.40
2022-11-29T07:12:34.633Z,1017.39
2022-11-29T07:13:34.808Z,1017.44
2022-11-29T07:14:35.081Z,1017.43
2022-11-29T07:15:35.367Z,1017.42
2022-11-29T07:16:35.570Z,1017.46
2022-11-29T07:17:35.695Z,1017.42
2022-11-29T07:18:35.999Z,1017.48
2022-11-29T07:19:36.235Z,1017.46
2022-11-29T07:20:36.514Z,1017.46
2022-11-29T07:21:36.816Z,1017.45
2022-11-29T07:22:36.979Z,1017.47
2022-11-29T07:23:37.283Z,1017.45
2022-11-29T07:24:37.443Z,1017.52
2022-11-29T07:25:37.743Z,1017.48
2022-11-29T07:26:38.038Z,1017.52
2022-11-29T07:27:38.345Z,1017.54
2022-11-29T07:28:38.529Z,1017.56
2022-11-29T07:29:38.682Z,1017.58
2022-11-29T07:30:38.957Z,1017.58
2022-11-29T07:31:39.311Z,1017.60
2022-11-29T07:32:39.557Z,1017.63
2022-11-29T07:33:39.869Z,1017.60
2022-11-29T07:34:40.155Z,1017.62
2022-11-29T07:35:40.323Z,1017.65
2022-11-29T07:36:40.490Z,1017.63
2022-11-29T07:37:40.679Z,1017.64
2022-11-29T07:38:40.977Z,1017.61
2022-11-29T07:39:41.123Z,1017.66
2022-11-29T07:40:41.298Z,1017.65
2022-11-29T07:41:41.603Z,1017.71
2022-11-29T07:42:41.772Z,1017.68
2022-11-29T07:43:42.073Z,1017.68
2022-11-29T07:44:42.239Z,1017.64
2022-11-29T07:45:42.396Z,1017.69
2022-11-29T07:46:42.623Z,1017.71
2022-11-29T07:47:42.749Z,1017.70
2022-11-29T07:48:42.929Z,1017.74
2022-11-29T07:49:43.076Z,1017.75
2022-11-29T07:50:43.255Z,1017.70
2022-11-29T07:51:43.410Z,1017.74
2022-11-29T07:52:43.705Z,1017.73
2022-11-29T07:53:43.926Z,1017.75
2022-11-29T07:54:44.413Z,1017.80
2022-11-29T07:55:44.207Z,1017.78
2022-11-29T07:56:44.380Z,1017.82
2022-11-29T07:57:44.537Z,1017.78
2022-11-29T07:58:44.942Z,1017.84
2022-11-29T07:59:45.377Z,1017.87
2022-11-29T08:00:45.374Z,1017.89
2022-11-29T08:01:45.693Z,1017.86
2022-11-29T08:02:45.766Z,1017.88
2022-11-29T08:03:45.958Z,1017.92
2022-11-29T08:04:46.326Z,1017.92
2022-11-29T08:05:46.284Z,1017.90
2022-11-29T08:06:46.460Z,1017.91
2022-11-29T08:07:46.786Z,1017.91
2022-11-29T08:08:46.819Z,1017.90
2022-11-29T08:09:47.331Z,1017.92
2022-11-29T08:10:47.138Z,1017.94
2022-11-29T08:11:47.306Z,1017.98
2022-11-29T08:12:47.493Z,1017.93
2022-11-29T08:13:47.664Z,1017.90
2022-11-29T08:14:48.101Z,1017.92
2022-11-29T08:15:47.998Z,1017.93
2022-11-29T08:16:48.260Z,1017.95
2022-11-29T08:17:48.472Z,1017.90
2022-11-29T08:18:48.659Z,1017.91
2022-11-29T08:19:48.801Z,1017.89
2022-11-29T08:20:48.981Z,1017.92
2022-11-29T08:21:49.152Z,1017.91
2022-11-29T08:22:49.320Z,1017.95
2022-11-29T08:23:49.505Z,1017.91
2022-11-29T08:24:49.648Z,1017.96
2022-11-29T08:25:49.824Z,1017.93
2022-11-29T08:26:49.993Z,1017.94
2022-11-29T08:27:50.162Z,1017.97
2022-11-29T08:28:50.348Z,1017.96
2022-11-29T08:29:50.516Z,1017.98
2022-11-29T08:30:52.041Z,1018.00
2022-11-29T08:31:50.894Z,1017.94
2022-11-29T08:32:51.715Z,1017.98
2022-11-29T08:33:51.345Z,1017.96
2022-11-29T08:34:51.600Z,1017.99
2022-11-29T08:35:51.783Z,1018.00
2022-11-29T08:36:52.062Z,1018.00
2022-11-29T08:37:52.238Z,1018.05
2022-11-29T08:38:59.289Z,1018.00
2022-11-29T08:39:52.574Z,1018.02
2022-11-29T08:40:52.749Z,1018.06
2022-11-29T08:41:52.908Z,1017.99
2022-11-29T08:42:53.083Z,1018.07
2022-11-29T08:43:53.279Z,1018.06
2022-11-29T08:44:53.429Z,1018.10
2022-11-29T08:45:53.682Z,1018.06
2022-11-29T08:46:53.770Z,1018.10
2022-11-29T08:47:54.057Z,1018.13
2022-11-29T08:48:54.237Z,1018.08
2022-11-29T08:49:54.385Z,1018.09
2022-11-29T08:50:54.557Z,1018.07
2022-11-29T08:51:54.727Z,1018.07
2022-11-29T08:52:54.891Z,1018.07
2022-11-29T08:53:55.119Z,1018.11
2022-11-29T08:54:58.845Z,1018.06
2022-11-29T08:55:55.438Z,1018.09
2022-11-29T08:57:38.488Z,1018.08
2022-11-29T08:57:55.907Z,1018.06
2022-11-29T08:58:56.119Z,1018.09
2022-11-29T08:59:56.245Z,1018.10
2022-11-29T09:00:56.472Z,1018.10
2022-11-29T09:01:56.779Z,1018.08
2022-11-29T09:02:56.889Z,1018.15
2022-11-29T09:03:57.224Z,1018.13
2022-11-29T09:04:57.352Z,1018.14
2022-11-29T09:05:57.549Z,1018.13
2022-11-29T09:06:57.737Z,1018.12
2022-11-29T09:07:58.065Z,1018.17
2022-11-29T09:08:58.335Z,1018.15
2022-11-29T09:09:58.609Z,1018.11
2022-11-29T09:10:58.812Z,1018.17
2022-11-29T09:11:58.999Z,1018.15
2022-11-29T09:12:59.187Z,1018.20
2022-11-29T09:13:59.499Z,1018.17
2022-11-29T09:14:59.652Z,1018.14
2022-11-29T09:15:59.951Z,1018.16
2022-11-29T09:17:00.302Z,1018.14
2022-11-29T09:18:00.444Z,1018.19
2022-11-29T09:19:00.657Z,1018.13
2022-11-29T09:20:00.807Z,1018.14
2022-11-29T09:21:00.997Z,1018.20
2022-11-29T09:22:01.174Z,1018.17
2022-11-29T09:23:01.502Z,1018.21
2022-11-29T09:24:01.792Z,1018.17
2022-11-29T09:25:02.073Z,1018.21
2022-11-29T09:26:02.272Z,1018.23
2022-11-29T09:27:02.551Z,1018.28
2022-11-29T09:28:02.747Z,1018.26
2022-11-29T09:29:02.947Z,1018.29
2022-11-29T09:30:03.229Z,1018.31
2022-11-29T09:31:03.516Z,1018.31
2022-11-29T09:32:03.774Z,1018.39
2022-11-29T09:33:03.900Z,1018.37
2022-11-29T09:34:04.097Z,1018.38
2022-11-29T09:35:04.375Z,1018.40
2022-11-29T09:36:04.568Z,1018.43
2022-11-29T09:37:05.449Z,1018.44
2022-11-29T09:38:05.151Z,1018.44
2022-11-29T09:39:05.367Z,1018.47
2022-11-29T09:40:05.516Z,1018.46
2022-11-29T09:41:05.699Z,1018.44
2022-11-29T09:42:05.888Z,1018.42
2022-11-29T09:43:06.066Z,1018.48
2022-11-29T09:44:06.267Z,1018.49
2022-11-29T09:45:06.440Z,1018.49
2022-11-29T09:46:06.685Z,1018.51
2022-11-29T09:47:06.804Z,1018.53
2022-11-29T09:48:07.110Z,1018.50
2022-11-29T09:49:07.320Z,1018.53
2022-11-29T09:50:07.601Z,1018.54
2022-11-29T09:51:07.791Z,1018.54
2022-11-29T09:52:07.968Z,1018.46
2022-11-29T09:53:08.153Z,1018.52
2022-11-29T09:54:08.397Z,1018.53
2022-11-29T09:55:08.646Z,1018.52
2022-11-29T09:56:08.951Z,1018.57
2022-11-29T09:57:10.978Z,1018.50
2022-11-29T09:58:09.533Z,1018.50
2022-11-29T09:59:09.885Z,1018.54
2022-11-29T10:00:10.013Z,1018.56
2022-11-29T10:01:10.242Z,1018.55
2022-11-29T10:02:10.561Z,1018.52
2022-11-29T10:03:10.794Z,1018.56
2022-11-29T10:04:11.125Z,1018.62
2022-11-29T10:05:11.256Z,1018.59
2022-11-29T10:06:11.441Z,1018.59
2022-11-29T10:07:11.719Z,1018.64
2022-11-29T10:08:11.918Z,1018.57
2022-11-29T10:09:12.113Z,1018.59
2022-11-29T10:10:12.415Z,1018.59
2022-11-29T10:11:12.591Z,1018.53
2022-11-29T10:12:12.783Z,1018.62
2022-11-29T10:13:13.072Z,1018.60
2022-11-29T10:14:13.273Z,1018.60
2022-11-29T10:15:13.560Z,1018.56
2022-11-29T10:16:13.786Z,1018.53
2022-11-29T10:17:13.943Z,1018.56
2022-11-29T10:18:14.225Z,1018.60
2022-11-29T10:19:14.451Z,1018.53
2022-11-29T10:20:14.622Z,1018.55
2022-11-29T10:21:14.774Z,1018.55
2022-11-29T10:22:14.960Z,1018.53
2022-11-29T10:23:15.142Z,1018.52
2022-11-29T10:24:15.442Z,1018.54
2022-11-29T10:25:15.633Z,1018.54
2022-11-29T10:26:15.822Z,1018.53
2022-11-29T10:27:16.006Z,1018.60
2022-11-29T10:28:16.299Z,1018.56
2022-11-29T10:29:16.617Z,1018.58
2022-11-29T10:30:16.978Z,1018.55
2022-11-29T10:31:17.121Z,1018.58
2022-11-29T10:32:17.280Z,1018.54
2022-11-29T10:33:17.464Z,1018.57
2022-11-29T10:34:17.780Z,1018.60
2022-11-29T10:35:18.058Z,1018.63
2022-11-29T10:36:18.241Z,1018.62
2022-11-29T10:37:18.429Z,1018.63
2022-11-29T10:38:33.995Z,1018.66
2022-11-29T10:39:18.912Z,1018.61
2022-11-29T10:40:19.112Z,1018.62
2022-11-29T10:41:19.276Z,1018.64
2022-11-29T10:42:19.471Z,1018.68
2022-11-29T10:43:19.666Z,1018.67
2022-11-29T10:44:19.858Z,1018.66
2022-11-29T10:45:20.131Z,1018.69
2022-11-29T10:46:20.373Z,1018.67
2022-11-29T10:47:20.507Z,1018.71
2022-11-29T10:48:20.700Z,1018.67
2022-11-29T10:49:21.004Z,1018.66
2022-11-29T10:50:21.284Z,1018.75
2022-11-29T10:51:21.587Z,1018.68
2022-11-29T10:52:21.772Z,1018.70
2022-11-29T10:53:21.954Z,1018.64
2022-11-29T10:54:22.193Z,1018.66
2022-11-29T10:55:22.435Z,1018.62
2022-11-29T10:56:22.738Z,1018.64
2022-11-29T10:57:22.937Z,1018.67
2022-11-29T10:58:27.660Z,1018.64
2022-11-29T10:59:23.460Z,1018.65
2022-11-29T11:00:23.604Z,1018.67
2022-11-29T11:01:24.011Z,1018.62
2022-11-29T11:02:24.079Z,1018.59
2022-11-29T11:03:24.391Z,1018.57
2022-11-29T11:04:24.598Z,1018.62
2022-11-29T11:05:24.890Z,1018.61
2022-11-29T11:06:25.062Z,1018.58
2022-11-29T11:07:25.407Z,1018.63
2022-11-29T11:08:25.551Z,1018.65
2022-11-29T11:09:25.761Z,1018.63
2022-11-29T11:10:25.899Z,1018.64
2022-11-29T11:11:26.096Z,1018.64
2022-11-29T11:12:26.270Z,1018.59
2022-11-29T11:13:26.575Z,1018.65
2022-11-29T11:14:26.772Z,1018.66
2022-11-29T11:15:27.054Z,1018.67
2022-11-29T11:16:28.909Z,1018.68
2022-11-29T11:17:27.571Z,1018.63
2022-11-29T11:18:27.753Z,1018.68
2022-11-29T11:19:27.951Z,1018.63
2022-11-29T11:20:28.242Z,1018.68
2022-11-29T11:21:28.415Z,1018.70
2022-11-29T11:22:28.607Z,1018.70
2022-11-29T11:23:28.801Z,1018.67
2022-11-29T11:24:29.005Z,1018.64
2022-11-29T11:25:29.270Z,1018.68
2022-11-29T11:26:29.443Z,1018.68
2022-11-29T11:27:29.769Z,1018.64
2022-11-29T11:28:30.058Z,1018.64
2022-11-29T11:29:30.262Z,1018.67
2022-11-29T11:30:30.608Z,1018.66
2022-11-29T11:31:30.729Z,1018.65
2022-11-29T11:32:31.035Z,1018.64
2022-11-29T11:33:31.216Z,1018.68
2022-11-29T11:34:31.532Z,1018.62
2022-11-29T11:35:31.823Z,1018.63
2022-11-29T11:36:32.118Z,1018.69
2022-11-29T11:37:32.413Z,1018.65
2022-11-29T11:38:32.609Z,1018.67
2022-11-29T11:39:32.806Z,1018.71
2022-11-29T11:40:33.059Z,1018.69
2022-11-29T11:41:33.275Z,1018.74
2022-11-29T11:42:33.617Z,1018.73
2022-11-29T11:43:33.773Z,1018.74
2022-11-29T11:44:49.520Z,1018.74
2022-11-29T11:45:34.200Z,1018.75
2022-11-29T11:46:34.339Z,1018.74
2022-11-29T11:47:34.473Z,1018.75
2022-11-29T11:48:34.662Z,1018.80
2022-11-29T11:49:34.860Z,1018.80
2022-11-29T11:50:35.140Z,1018.81
2022-11-29T11:51:35.338Z,1018.79
2022-11-29T11:52:39.835Z,1018.80
2022-11-29T11:53:35.812Z,1018.79
2022-11-29T11:54:36.011Z,1018.77
2022-11-29T11:55:36.174Z,1018.77
2022-11-29T11:56:36.354Z,1018.78
2022-11-29T11:57:36.660Z,1018.81
2022-11-29T11:58:36.858Z,1018.80
2022-11-29T11:59:37.170Z,1018.75
2022-11-29T12:01:02.291Z,1018.75
2022-11-29T12:01:37.752Z,1018.69
2022-11-29T12:02:38.124Z,1018.74
2022-11-29T12:03:38.409Z,1018.74
2022-11-29T12:04:38.562Z,1018.78
2022-11-29T12:05:41.453Z,1018.79
2022-11-29T12:06:38.901Z,1018.76
2022-11-29T12:08:07.331Z,1018.78
2022-11-29T12:08:39.455Z,1018.77